createdAt,value
2022-11-01T00:01:50.867Z,38.28
2022-11-01T00:06:57.981Z,38.45
2022-11-01T00:12:05.112Z,38.38
2022-11-01T00:17:12.312Z,38.39
2022-11-01T00:22:19.505Z,38.44
2022-11-01T00:27:26.714Z,38.38
2022-11-01T00:32:33.874Z,38.54
2022-11-01T00:37:41.155Z,38.60
2022-11-01T00:42:48.372Z,38.63
2022-11-01T00:47:55.607Z,38.33
2022-11-01T00:53:02.834Z,38.75
2022-11-01T00:58:09.992Z,38.81
2022-11-01T01:03:17.251Z,38.64
2022-11-01T01:08:24.466Z,38.84
2022-11-01T01:13:31.669Z,38.58
2022-11-01T01:18:38.847Z,38.79
2022-11-01T01:23:46.103Z,38.65
2022-11-01T01:28:53.312Z,38.92
2022-11-01T01:34:00.576Z,38.91
2022-11-01T01:39:07.787Z,39.21
2022-11-01T01:44:14.969Z,39.64
2022-11-01T01:49:22.165Z,39.87
2022-11-01T01:54:29.386Z,40.06
2022-11-01T01:59:36.578Z,40.23
2022-11-01T02:04:44.325Z,40.59
2022-11-01T02:09:51.548Z,40.40
2022-11-01T02:14:58.808Z,40.61
2022-11-01T02:20:06.015Z,40.53
2022-11-01T02:25:13.246Z,40.62
2022-11-01T02:30:20.417Z,41.06
2022-11-01T02:35:27.624Z,41.22
2022-11-01T02:40:34.856Z,41.36
2022-11-01T02:45:42.022Z,41.61
2022-11-01T02:50:49.219Z,41.68
2022-11-01T02:55:56.473Z,41.18
2022-11-01T03:01:03.764Z,40.96
2022-11-01T03:06:10.854Z,40.78
2022-11-01T03:11:18.137Z,40.61
2022-11-01T03:16:25.294Z,40.46
2022-11-01T03:21:32.476Z,40.29
2022-11-01T03:26:39.794Z,40.16
2022-11-01T03:31:46.974Z,40.19
2022-11-01T03:36:54.182Z,40.17
2022-11-01T03:42:01.413Z,40.08
2022-11-01T03:47:08.585Z,40.09
2022-11-01T03:52:15.802Z,40.15
2022-11-01T03:57:22.982Z,40.14
2022-11-01T04:02:30.158Z,40.12
2022-11-01T04:07:37.312Z,40.10
2022-11-01T04:12:44.589Z,40.14
2022-11-01T04:17:51.776Z,40.27
2022-11-01T04:22:59.315Z,40.47
2022-11-01T04:28:06.265Z,40.67
2022-11-01T04:33:13.424Z,40.78
2022-11-01T04:38:20.610Z,40.98
2022-11-01T04:43:27.894Z,40.86
2022-11-01T04:48:35.077Z,40.54
2022-11-01T04:53:43.735Z,40.39
2022-11-01T04:58:51.227Z,40.14
2022-11-01T05:03:58.422Z,40.13
2022-11-01T05:09:05.613Z,39.97
2022-11-01T05:14:12.809Z,40.04
2022-11-01T05:19:20.025Z,39.99
2022-11-01T05:24:27.229Z,39.95
2022-11-01T05:29:34.456Z,39.99
2022-11-01T05:34:41.623Z,39.93
2022-11-01T05:39:48.861Z,39.98
2022-11-01T05:44:56.075Z,39.93
2022-11-01T05:50:03.319Z,40.05
2022-11-01T05:55:10.505Z,40.07
2022-11-01T06:00:17.795Z,40.14
2022-11-01T06:05:24.977Z,40.06
2022-11-01T06:10:32.174Z,40.12
2022-11-01T06:15:39.820Z,40.18
2022-11-01T06:20:46.594Z,40.23
2022-11-01T06:25:53.784Z,40.31
2022-11-01T06:31:01.087Z,40.45
2022-11-01T06:36:08.203Z,40.48
2022-11-01T06:41:15.507Z,40.44
2022-11-01T06:46:22.704Z,40.41
2022-11-01T06:51:30.690Z,40.28
2022-11-01T06:56:37.930Z,40.25
2022-11-01T07:01:45.322Z,40.19
2022-11-01T07:06:52.368Z,40.26
2022-11-01T07:11:59.548Z,40.21
2022-11-01T07:17:06.771Z,40.23
2022-11-01T07:22:13.959Z,40.20
2022-11-01T07:27:21.144Z,40.22
2022-11-01T07:32:28.381Z,40.45
2022-11-01T07:37:35.578Z,40.60
2022-11-01T07:42:42.770Z,40.53
2022-11-01T07:47:49.976Z,40.38
2022-11-01T07:52:57.082Z,40.36
2022-11-01T07:58:04.691Z,40.16
2022-11-01T08:03:11.565Z,40.14
2022-11-01T08:08:18.698Z,40.06
2022-11-01T08:13:25.858Z,39.85
2022-11-01T08:18:33.132Z,39.72
2022-11-01T08:23:40.302Z,39.73
2022-11-01T08:28:47.518Z,39.71
2022-11-01T08:33:54.834Z,39.69
2022-11-01T08:39:02.100Z,39.70
2022-11-01T08:44:09.253Z,39.81
2022-11-01T08:49:16.486Z,39.73
2022-11-01T08:54:23.711Z,39.68
2022-11-01T08:59:30.938Z,39.70
2022-11-01T09:04:40.479Z,39.57
2022-11-01T09:09:47.666Z,39.61
2022-11-01T09:14:54.910Z,39.42
2022-11-01T09:20:02.191Z,39.29
2022-11-01T09:25:09.394Z,39.26
2022-11-01T09:30:16.673Z,39.24
2022-11-01T09:35:23.879Z,39.29
2022-11-01T09:40:31.112Z,39.37
2022-11-01T09:45:38.367Z,39.24
2022-11-01T09:50:45.584Z,39.51
2022-11-01T09:55:52.780Z,39.65
2022-11-01T10:01:00.019Z,39.56
2022-11-01T10:06:07.329Z,39.61
2022-11-01T10:11:14.532Z,39.56
2022-11-01T10:16:21.721Z,39.73
2022-11-01T10:21:29.891Z,39.79
2022-11-01T10:26:36.124Z,39.71
2022-11-01T10:31:43.292Z,39.74
2022-11-01T10:36:50.567Z,39.91
2022-11-01T10:41:57.726Z,39.90
2022-11-01T10:47:05.015Z,39.89
2022-11-01T10:52:12.222Z,39.59
2022-11-01T10:57:19.423Z,39.63
2022-11-01T11:02:26.740Z,39.60
2022-11-01T11:07:33.864Z,39.93
2022-11-01T11:12:40.997Z,40.04
2022-11-01T11:17:48.340Z,39.91
2022-11-01T11:22:55.585Z,39.88
2022-11-01T11:28:02.979Z,39.54
2022-11-01T11:33:09.971Z,39.45
2022-11-01T11:38:17.182Z,39.58
2022-11-01T11:43:24.398Z,39.28
2022-11-01T11:48:31.616Z,39.38
2022-11-01T11:53:38.910Z,39.36
2022-11-01T11:58:46.114Z,39.31
2022-11-01T12:03:53.296Z,39.28
2022-11-01T12:09:00.525Z,39.45
2022-11-01T12:14:07.775Z,39.60
2022-11-01T12:19:16.560Z,39.73
2022-11-01T12:24:23.837Z,39.74
2022-11-01T12:29:31.254Z,39.87
2022-11-01T12:34:41.530Z,39.99
2022-11-01T12:39:46.002Z,40.57
2022-11-01T12:44:53.494Z,40.99
2022-11-01T12:50:00.870Z,41.18
2022-11-01T12:55:08.103Z,41.32
2022-11-01T13:00:15.317Z,41.34
2022-11-01T13:05:22.489Z,40.90
2022-11-01T13:10:29.810Z,41.19
2022-11-01T13:15:36.975Z,40.92
2022-11-01T13:20:44.124Z,40.62
2022-11-01T13:25:51.412Z,40.64
2022-11-01T13:30:58.658Z,40.58
2022-11-01T13:36:05.976Z,40.58
2022-11-01T13:41:13.304Z,40.25
2022-11-01T13:46:20.485Z,40.18
2022-11-01T13:51:27.878Z,40.35
2022-11-01T13:56:35.531Z,40.38
2022-11-01T14:01:42.880Z,40.29
2022-11-01T14:06:49.968Z,40.27
2022-11-01T14:11:57.255Z,40.06
2022-11-01T14:17:04.500Z,40.17
2022-11-01T14:22:11.688Z,40.02
2022-11-01T14:27:19.210Z,40.12
2022-11-01T14:32:26.432Z,40.07
2022-11-01T14:37:33.620Z,39.98
2022-11-01T14:42:41.060Z,40.15
2022-11-01T14:47:48.454Z,40.06
2022-11-01T14:52:55.650Z,40.00
2022-11-01T14:58:03.239Z,40.04
2022-11-01T15:03:09.986Z,39.92
2022-11-01T15:08:17.299Z,39.89
2022-11-01T15:13:24.800Z,39.95
2022-11-01T15:18:32.397Z,39.89
2022-11-01T15:23:39.721Z,39.95
2022-11-01T15:28:47.243Z,40.02
2022-11-01T15:33:55.994Z,39.97
2022-11-01T15:39:03.292Z,39.96
2022-11-01T15:44:10.581Z,39.95
2022-11-01T15:49:17.811Z,39.97
2022-11-01T15:54:30.866Z,39.91
2022-11-01T15:59:33.024Z,40.02
2022-11-01T16:04:40.402Z,40.01
2022-11-01T16:09:47.626Z,39.98
2022-11-01T16:14:55.157Z,40.05
2022-11-01T16:20:03.149Z,40.00
2022-11-01T16:25:10.540Z,39.96
2022-11-01T16:30:17.990Z,39.97
2022-11-01T16:35:25.312Z,39.95
2022-11-01T16:40:32.795Z,40.24
2022-11-01T16:45:42.059Z,40.41
2022-11-01T16:50:49.552Z,40.34
2022-11-01T16:56:01.512Z,40.39
2022-11-01T17:01:04.605Z,40.39
2022-11-01T17:06:11.889Z,40.50
2022-11-01T17:11:19.394Z,40.58
2022-11-01T17:16:26.868Z,40.59
2022-11-01T17:21:34.316Z,40.52
2022-11-01T17:26:41.773Z,40.46
2022-11-01T17:31:48.962Z,40.31
2022-11-01T17:36:56.443Z,40.19
2022-11-01T17:42:03.847Z,40.11
2022-11-01T17:47:11.413Z,40.01
2022-11-01T17:52:18.675Z,39.94
2022-11-01T17:57:25.995Z,39.86
2022-11-01T18:02:33.568Z,39.81
2022-11-01T18:07:41.108Z,39.57
2022-11-01T18:12:48.721Z,39.39
2022-11-01T18:17:58.664Z,39.21
2022-11-01T18:23:03.751Z,39.14
2022-11-01T18:28:11.360Z,39.16
2022-11-01T18:33:18.998Z,39.13
2022-11-01T18:38:26.591Z,39.14
2022-11-01T18:43:34.207Z,39.16
2022-11-01T18:48:41.841Z,39.00
2022-11-01T18:53:49.533Z,39.27
2022-11-01T18:58:57.148Z,39.10
2022-11-01T19:04:06.331Z,39.34
2022-11-01T19:09:13.713Z,39.03
2022-11-01T19:14:21.127Z,39.33
2022-11-01T19:19:28.859Z,39.30
2022-11-01T19:24:36.199Z,39.03
2022-11-01T19:29:43.666Z,38.96
2022-11-01T19:34:51.293Z,38.41
2022-11-01T19:39:58.672Z,38.46
2022-11-01T19:45:06.136Z,38.66
2022-11-01T19:50:14.749Z,38.72
2022-11-01T19:55:22.340Z,38.67
2022-11-01T20:00:30.065Z,38.64
2022-11-01T20:05:37.701Z,38.60
2022-11-01T20:10:45.388Z,38.50
2022-11-01T20:15:53.003Z,38.46
2022-11-01T20:21:00.646Z,38.53
2022-11-01T20:26:08.335Z,38.52
2022-11-01T20:31:15.949Z,38.55
2022-11-01T20:36:23.353Z,38.45
2022-11-01T20:41:30.872Z,38.32
2022-11-01T20:46:38.491Z,38.20
2022-11-01T20:51:45.828Z,38.14
2022-11-01T20:56:53.303Z,38.33
2022-11-01T21:02:00.707Z,38.37
2022-11-01T21:07:07.900Z,38.49
2022-11-01T21:12:15.036Z,38.58
2022-11-01T21:17:22.430Z,38.16
2022-11-01T21:22:29.843Z,38.22
2022-11-01T21:27:37.080Z,38.28
2022-11-01T21:32:45.480Z,38.66
2022-11-01T21:37:51.960Z,38.32
2022-11-01T21:42:59.480Z,38.35
2022-11-01T21:48:07.224Z,37.95
2022-11-01T21:53:14.071Z,37.94
2022-11-01T21:58:21.310Z,38.16
2022-11-01T22:03:28.510Z,37.94
2022-11-01T22:08:35.739Z,37.90
2022-11-01T22:13:42.987Z,37.62
2022-11-01T22:18:50.198Z,37.60
2022-11-01T22:23:57.445Z,37.94
2022-11-01T22:29:04.640Z,38.22
2022-11-01T22:34:11.866Z,38.24
2022-11-01T22:39:19.066Z,37.52
2022-11-01T22:44:26.291Z,37.65
2022-11-01T22:49:33.451Z,37.54
2022-11-01T22:54:40.743Z,37.71
2022-11-01T22:59:47.968Z,37.87
2022-11-01T23:04:55.128Z,38.00
2022-11-01T23:10:02.408Z,37.78
2022-11-01T23:15:09.574Z,37.63
2022-11-01T23:20:16.787Z,37.80
2022-11-01T23:25:24.014Z,37.63
2022-11-01T23:30:31.234Z,37.90
2022-11-01T23:35:38.401Z,37.25
2022-11-01T23:40:45.649Z,37.12
2022-11-01T23:45:52.819Z,37.26
2022-11-01T23:51:00.013Z,37.54
2022-11-01T23:56:07.243Z,37.82
